Time;durP1;ratioP1;P1;durP2;ratioP2;P2;SDS_P1;SDS_P2;PMS_P1;PMS_P2;Temp;Humidity;BMP_temperature;BMP_pressure;BME280_temperature;BME280_humidity;BME280_pressure;Samples;Min_cycle;Max_cycle;Signal;HPM_P1;HPM_P2
2022/02/25 00:01:57;;;;;;;;;;;;;;;6.63;59.55;99906.25;4290437;33;20036;-87
2022/02/25 00:04:22;;;;;;;;;;;;;;;6.73;59.57;99907.81;4303782;33;19989;-87
2022/02/25 00:06:48;;;;;;;;;;;;;;;6.77;59.56;99901.72;4290027;33;20059;-87
2022/02/25 00:09:13;;;;;;;;;;;;;;;6.55;59.55;99902.87;4289845;33;20334;-88
2022/02/25 00:11:38;;;;;;;;;;;;;;;6.68;59.56;99897.53;4290080;33;20018;-88
2022/02/25 00:14:04;;;;;;;;;;;;;;;6.70;59.56;99890.62;4290310;33;20871;-88
2022/02/25 00:16:29;;;;;;;;;;;;;;;6.60;59.56;99899.34;4303637;33;20235;-88
2022/02/25 00:18:55;;;;;;;;;;;;;;;6.66;59.56;99898.44;4303675;33;20077;-88
2022/02/25 00:21:20;;;;;;;;;;;;;;;6.68;59.55;99892.38;4303844;33;19976;-88
2022/02/25 00:23:45;;;;;;;;;;;;;;;6.64;59.56;99895.88;4303516;33;25682;-88
2022/02/25 00:26:10;;;;;;;;;;;;;;;6.53;59.55;99889.13;4302451;33;20003;-88
2022/02/25 00:28:36;;;;;;;;;;;;;;;6.49;59.55;99887.47;4290253;33;20019;-88
2022/02/25 00:31:01;;;;;;;;;;;;;;;6.50;59.54;99894.34;4303176;33;21430;-87
2022/02/25 00:33:26;;;;;;;;;;;;;;;6.66;59.56;99890.69;4290192;33;19984;-88
2022/02/25 00:35:51;;;;;;;;;;;;;;;6.61;59.55;99888.13;4290225;33;20001;-89
2022/02/25 00:38:17;;;;;;;;;;;;;;;6.58;59.56;99892.50;4290279;33;19993;-88
2022/02/25 00:40:42;;;;;;;;;;;;;;;6.61;59.56;99892.44;4290117;33;19996;-89
2022/02/25 00:43:07;;;;;;;;;;;;;;;6.72;59.55;99895.75;4303550;33;20072;-89
2022/02/25 00:45:33;;;;;;;;;;;;;;;6.60;59.56;99891.59;4290038;33;20230;-88
2022/02/25 00:47:58;;;;;;;;;;;;;;;6.56;59.55;99881.31;4289982;33;20060;-89
2022/02/25 00:50:23;;;;;;;;;;;;;;;6.58;59.56;99880.41;4290126;33;20008;-88
2022/02/25 00:52:49;;;;;;;;;;;;;;;6.58;59.56;99880.41;4302170;33;19988;-88
2022/02/25 00:55:14;;;;;;;;;;;;;;;6.60;59.56;99872.63;4289977;33;20593;-88
2022/02/25 00:57:45;;;;;;;;;;;;;;;6.63;59.55;99864.87;4277667;33;786964;-88
2022/02/25 01:00:11;;;;;;;;;;;;;;;6.54;59.55;99864.97;4290290;33;20014;-88
2022/02/25 01:02:36;;;;;;;;;;;;;;;6.47;59.55;99877.13;4290298;33;19977;-89
2022/02/25 01:05:02;;;;;;;;;;;;;;;6.53;59.55;99883.97;4289630;33;29274;-88
2022/02/25 01:07:27;;;;;;;;;;;;;;;6.56;59.54;99895.09;4290185;33;20070;-88
2022/02/25 01:09:52;;;;;;;;;;;;;;;6.43;59.54;99886.69;4290336;33;20374;-87
2022/02/25 01:12:17;;;;;;;;;;;;;;;6.30;59.53;99879.94;4289549;33;25779;-88
2022/02/25 01:14:43;;;;;;;;;;;;;;;6.29;59.54;99882.53;4290049;33;20000;-88
2022/02/25 01:17:08;;;;;;;;;;;;;;;6.21;59.53;99876.63;4289864;33;19984;-88
2022/02/25 01:19:33;;;;;;;;;;;;;;;6.20;59.54;99878.34;4288864;33;20306;-88
2022/02/25 01:21:58;;;;;;;;;;;;;;;6.11;59.52;99883.62;4289160;33;27033;-88
2022/02/25 01:24:24;;;;;;;;;;;;;;;6.05;59.51;99884.53;4289955;33;19980;-86
2022/02/25 01:26:49;;;;;;;;;;;;;;;6.04;59.51;99882.84;4289900;33;20021;-89
2022/02/25 01:29:14;;;;;;;;;;;;;;;6.03;59.52;99891.47;4289783;33;19997;-88
2022/02/25 01:31:43;;;;;;;;;;;;;;;6.04;59.52;99884.56;4289963;33;19976;-87
2022/02/25 01:34:08;;;;;;;;;;;;;;;5.99;59.52;99881.19;4290400;33;19996;-88
2022/02/25 01:36:33;;;;;;;;;;;;;;;5.96;59.51;99884.66;4289714;33;20033;-89
2022/02/25 01:39:02;;;;;;;;;;;;;;;5.90;59.52;99884.72;4289261;33;24281;-89
2022/02/25 01:41:28;;;;;;;;;;;;;;;5.95;59.52;99879.50;4303093;33;19981;-88
2022/02/25 01:44:09;;;;;;;;;;;;;;;5.90;59.52;99879.53;4289836;33;20027;-88
2022/02/25 01:46:34;;;;;;;;;;;;;;;5.84;59.52;99872.69;4289663;33;19993;-88
2022/02/25 01:48:59;;;;;;;;;;;;;;;5.84;59.51;99874.41;4289040;33;22143;-89
2022/02/25 01:51:24;;;;;;;;;;;;;;;5.75;59.50;99869.34;4302718;33;19996;-88
2022/02/25 01:53:49;;;;;;;;;;;;;;;5.80;59.50;99859.81;4289154;33;19988;-89
2022/02/25 01:56:15;;;;;;;;;;;;;;;5.77;59.51;99862.44;4303022;33;19988;-88
2022/02/25 01:58:40;;;;;;;;;;;;;;;5.77;59.51;99858.13;4302948;33;19980;-88
2022/02/25 02:01:05;;;;;;;;;;;;;;;5.68;59.50;99855.66;4289202;33;19992;-88
2022/02/25 02:03:30;;;;;;;;;;;;;;;5.71;59.51;99842.72;4289611;33;20329;-91
2022/02/25 02:05:56;;;;;;;;;;;;;;;5.73;59.49;99842.69;4290252;33;19996;-92
2022/02/25 02:08:21;;;;;;;;;;;;;;;5.74;59.50;99837.50;4290836;33;20008;-91
2022/02/25 02:10:46;;;;;;;;;;;;;;;5.64;59.50;99838.47;4289788;33;22133;-91
2022/02/25 02:13:12;;;;;;;;;;;;;;;5.60;59.49;99833.34;4289426;33;20044;-89
2022/02/25 02:15:37;;;;;;;;;;;;;;;5.67;59.49;99830.69;4289712;33;19993;-90
2022/02/25 02:18:02;;;;;;;;;;;;;;;5.59;59.49;99847.13;4290005;33;20018;-91
2022/02/25 02:20:28;;;;;;;;;;;;;;;5.69;59.50;99852.22;4290223;33;20019;-92
2022/02/25 02:22:53;;;;;;;;;;;;;;;5.73;59.50;99848.72;4290442;33;20029;-93
2022/02/25 02:25:18;;;;;;;;;;;;;;;5.75;59.50;99848.69;4290574;33;20009;-89
2022/02/25 02:30:27;;;;;;;;;;;;;;;5.54;59.49;99823.94;4291106;33;20043;-89
2022/02/25 02:32:53;;;;;;;;;;;;;;;5.46;59.48;99836.09;4304003;33;19969;-88
2022/02/25 02:35:18;;;;;;;;;;;;;;;5.48;59.49;99835.22;4290825;33;20046;-89
2022/02/25 02:37:43;;;;;;;;;;;;;;;5.48;59.49;99837.78;4303623;33;26211;-88
2022/02/25 02:40:09;;;;;;;;;;;;;;;5.53;59.49;99832.56;4304237;33;20004;-89
2022/02/25 02:42:37;;;;;;;;;;;;;;;5.53;59.49;99828.25;4291018;33;20036;-88
2022/02/25 02:45:02;;;;;;;;;;;;;;;5.54;59.49;99837.72;4290845;33;20052;-90
2022/02/25 02:47:28;;;;;;;;;;;;;;;5.47;59.49;99841.25;4290851;33;20027;-87
2022/02/25 02:49:53;;;;;;;;;;;;;;;5.43;59.48;99842.13;4290913;33;20310;-88
2022/02/25 02:52:18;;;;;;;;;;;;;;;5.42;59.48;99836.97;4290939;33;20016;-87
2022/02/25 02:54:43;;;;;;;;;;;;;;;5.49;59.49;99841.22;4290774;33;20056;-88
2022/02/25 02:57:09;;;;;;;;;;;;;;;5.40;59.48;99847.31;4290988;33;20011;-88
2022/02/25 02:59:34;;;;;;;;;;;;;;;5.33;59.48;99839.66;4290645;33;20048;-88
2022/02/25 03:01:59;;;;;;;;;;;;;;;5.28;59.47;99834.53;4291232;33;19991;-89
2022/02/25 03:04:25;;;;;;;;;;;;;;;5.29;59.47;99827.66;4291471;33;20024;-91
2022/02/25 03:06:50;;;;;;;;;;;;;;;5.26;59.48;99825.97;4291519;33;20000;-91
2022/02/25 03:09:16;;;;;;;;;;;;;;;5.23;59.47;99829.44;4291491;33;19996;-91
2022/02/25 03:11:41;;;;;;;;;;;;;;;5.22;59.47;99819.97;4291208;33;20032;-91
2022/02/25 03:14:06;;;;;;;;;;;;;;;5.25;59.48;99826.81;4291652;33;19989;-90
2022/02/25 03:16:31;;;;;;;;;;;;;;;5.30;59.47;99829.34;4291170;33;25409;-91
2022/02/25 03:18:57;;;;;;;;;;;;;;;5.17;59.47;99837.19;4291754;33;19989;-91
2022/02/25 03:21:22;;;;;;;;;;;;;;;5.14;59.47;99836.38;4291622;33;20327;-91
2022/02/25 03:23:47;;;;;;;;;;;;;;;5.15;59.46;99838.94;4291366;33;20022;-90
2022/02/25 03:26:12;;;;;;;;;;;;;;;5.11;59.47;99831.25;4291602;33;20015;-91
2022/02/25 03:28:38;;;;;;;;;;;;;;;5.11;59.47;99828.66;4292543;33;20023;-92
2022/02/25 03:31:03;;;;;;;;;;;;;;;5.08;59.46;99828.69;4292276;33;20003;-92
2022/02/25 03:33:28;;;;;;;;;;;;;;;5.10;59.47;99832.13;4291388;33;31530;-91
2022/02/25 03:35:53;;;;;;;;;;;;;;;5.10;59.47;99832.13;4292047;33;19989;-91
2022/02/25 03:38:18;;;;;;;;;;;;;;;5.22;59.47;99839.75;4292112;33;19984;-90
2022/02/25 03:40:44;;;;;;;;;;;;;;;5.21;59.47;99828.59;4291842;33;19996;-92
2022/02/25 03:43:10;;;;;;;;;;;;;;;5.21;59.47;99820.84;4291332;33;19996;-91
2022/02/25 03:45:35;;;;;;;;;;;;;;;5.06;59.46;99822.69;4292059;33;20018;-91
2022/02/25 03:48:01;;;;;;;;;;;;;;;5.12;59.47;99826.06;4291880;33;20029;-90
2022/02/25 03:50:26;;;;;;;;;;;;;;;5.14;59.47;99837.22;4291718;33;20329;-91
2022/02/25 03:52:51;;;;;;;;;;;;;;;5.17;59.47;99839.78;4292371;33;19981;-90
2022/02/25 03:55:17;;;;;;;;;;;;;;;5.16;59.47;99832.91;4291947;33;23042;-92
2022/02/25 03:57:42;;;;;;;;;;;;;;;5.19;59.47;99837.19;4292694;33;19991;-91
2022/02/25 04:00:07;;;;;;;;;;;;;;;5.08;59.47;99839.00;4292419;33;20043;-91
2022/02/25 04:02:33;;;;;;;;;;;;;;;5.12;59.47;99835.53;4292540;33;19984;-91
2022/02/25 04:04:58;;;;;;;;;;;;;;;5.12;59.47;99831.22;4292573;33;20028;-92
2022/02/25 04:07:23;;;;;;;;;;;;;;;5.08;59.47;99831.28;4291939;33;19992;-91
2022/02/25 04:09:48;;;;;;;;;;;;;;;5.02;59.46;99839.06;4292337;33;19997;-91
2022/02/25 04:12:14;;;;;;;;;;;;;;;4.96;59.46;99839.09;4292437;33;19988;-91
2022/02/25 04:14:39;;;;;;;;;;;;;;;4.91;59.45;99852.03;4291546;33;21795;-90
2022/02/25 04:17:04;;;;;;;;;;;;;;;4.82;59.45;99858.13;4290400;33;20345;-87
2022/02/25 04:19:30;;;;;;;;;;;;;;;4.79;59.45;99857.28;4303632;33;20298;-87
2022/02/25 04:21:55;;;;;;;;;;;;;;;4.63;59.43;99844.50;4303707;33;20002;-88
2022/02/25 04:24:20;;;;;;;;;;;;;;;4.66;59.44;99860.81;4290397;33;20742;-87
2022/02/25 04:26:45;;;;;;;;;;;;;;;4.60;59.44;99867.72;4303620;33;19992;-87
2022/02/25 04:29:11;;;;;;;;;;;;;;;4.52;59.43;99854.03;4289654;33;26207;-87
2022/02/25 04:31:36;;;;;;;;;;;;;;;4.59;59.44;99839.38;4303588;33;20007;-88
2022/02/25 04:34:01;;;;;;;;;;;;;;;4.53;59.43;99844.56;4290136;33;20024;-87
2022/02/25 04:36:27;;;;;;;;;;;;;;;4.64;59.44;99837.62;4302754;33;31964;-87
2022/02/25 04:38:52;;;;;;;;;;;;;;;4.54;59.43;99838.56;4290214;33;20000;-87
2022/02/25 04:41:17;;;;;;;;;;;;;;;4.51;59.44;99836.84;4303439;33;19983;-87
2022/02/25 04:43:42;;;;;;;;;;;;;;;4.41;59.42;99829.16;4290310;33;20008;-87
2022/02/25 04:46:18;;;;;;;;;;;;;;;4.53;59.43;99822.22;4290225;33;20018;-87
2022/02/25 04:48:43;;;;;;;;;;;;;;;4.59;59.44;99827.34;4290344;33;19984;-87
2022/02/25 04:51:08;;;;;;;;;;;;;;;4.51;59.43;99820.53;4290157;33;20366;-88
2022/02/25 04:53:34;;;;;;;;;;;;;;;4.38;59.42;99832.63;4290402;33;20011;-89
2022/02/25 04:55:59;;;;;;;;;;;;;;;4.29;59.42;99835.25;4290261;33;19977;-87
2022/02/25 04:58:24;;;;;;;;;;;;;;;4.30;59.42;99831.81;4303547;33;20003;-86
2022/02/25 05:00:50;;;;;;;;;;;;;;;4.26;59.41;99828.41;4290220;33;20306;-88
2022/02/25 05:03:17;;;;;;;;;;;;;;;4.34;59.42;99820.63;4290357;33;20036;-89
2022/02/25 05:05:42;;;;;;;;;;;;;;;4.32;59.41;99817.22;4290177;33;19998;-88
2022/02/25 05:08:08;;;;;;;;;;;;;;;4.34;59.42;99815.47;4290340;33;20350;-88
2022/02/25 05:10:33;;;;;;;;;;;;;;;4.30;59.42;99818.94;4290256;33;19999;-89
2022/02/25 05:21:11;;;;;;;;;;;;;;;4.25;59.41;99810.34;4303308;33;20016;-89
2022/02/25 05:23:36;;;;;;;;;;;;;;;4.04;59.40;99811.34;4302420;33;20357;-89
2022/02/25 05:26:01;;;;;;;;;;;;;;;4.12;59.40;99825.03;4290186;33;19996;-89
2022/02/25 05:28:26;;;;;;;;;;;;;;;4.09;59.41;99824.19;4290339;33;20016;-89
2022/02/25 05:30:51;;;;;;;;;;;;;;;4.09;59.40;99826.78;4289375;33;25788;-87
2022/02/25 05:33:17;;;;;;;;;;;;;;;4.08;59.41;99835.38;4302766;33;20342;-88
2022/02/25 05:35:42;;;;;;;;;;;;;;;4.09;59.41;99844.81;4289675;33;20300;-87
2022/02/25 05:38:07;;;;;;;;;;;;;;;4.07;59.41;99862.00;4301789;33;20000;-89
2022/02/25 05:40:33;;;;;;;;;;;;;;;3.98;59.41;99863.72;4290003;33;19985;-89
2022/02/25 05:43:00;;;;;;;;;;;;;;;4.03;59.40;99870.59;4290051;33;20028;-89
2022/02/25 05:45:25;;;;;;;;;;;;;;;4.03;59.41;99863.72;4290239;33;19996;-88
2022/02/25 05:47:50;;;;;;;;;;;;;;;3.93;59.39;99862.88;4289136;33;25884;-89
2022/02/25 05:50:16;;;;;;;;;;;;;;;4.02;59.40;99851.69;4289408;33;20045;-88
2022/02/25 05:52:42;;;;;;;;;;;;;;;4.04;59.40;99867.16;4289659;33;20055;-87
2022/02/25 05:55:07;;;;;;;;;;;;;;;3.98;59.41;99873.16;4289376;33;20017;-86
2022/02/25 05:57:32;;;;;;;;;;;;;;;4.00;59.40;99884.31;4289718;33;19996;-88
2022/02/25 05:59:58;;;;;;;;;;;;;;;3.93;59.40;99892.94;4288014;33;19988;-88
2022/02/25 06:02:23;;;;;;;;;;;;;;;3.88;59.39;99895.53;4300771;33;20000;-87
2022/02/25 06:04:49;;;;;;;;;;;;;;;3.74;59.38;99902.41;4288275;33;20026;-89
2022/02/25 06:07:15;;;;;;;;;;;;;;;3.74;59.39;99898.97;4281103;33;19977;-88
2022/02/25 06:09:40;;;;;;;;;;;;;;;3.73;59.39;99907.56;4291061;33;19988;-90
2022/02/25 06:12:05;;;;;;;;;;;;;;;3.79;59.39;99918.72;4290904;33;20019;-87
2022/02/25 06:14:31;;;;;;;;;;;;;;;3.88;59.39;99926.41;4290948;33;20012;-88
2022/02/25 06:16:56;;;;;;;;;;;;;;;4.00;59.40;99923.81;4290236;33;27701;-88
2022/02/25 06:19:21;;;;;;;;;;;;;;;4.06;59.41;99919.53;4286635;33;20020;-88
2022/02/25 06:21:46;;;;;;;;;;;;;;;3.91;59.40;99910.09;4281374;33;20262;-88
2022/02/25 06:24:11;;;;;;;;;;;;;;;3.98;59.40;99907.50;4290867;33;19996;-88
2022/02/25 06:26:37;;;;;;;;;;;;;;;4.21;59.42;99909.13;4290361;33;19988;-88
2022/02/25 06:29:02;;;;;;;;;;;;;;;4.29;59.42;99899.69;4290605;33;20085;-89
2022/02/25 06:31:28;;;;;;;;;;;;;;;4.27;59.42;99898.84;4290673;33;19993;-88
2022/02/25 06:33:53;;;;;;;;;;;;;;;4.40;59.42;99926.25;4290401;33;20997;-88
2022/02/25 06:36:18;;;;;;;;;;;;;;;4.07;59.41;99927.25;4290732;33;20024;-88
2022/02/25 06:38:46;;;;;;;;;;;;;;;4.17;59.41;99926.34;4289976;33;19984;-88
2022/02/25 06:41:11;;;;;;;;;;;;;;;4.25;59.41;99924.56;4291008;33;20043;-88
2022/02/25 06:43:36;;;;;;;;;;;;;;;4.30;59.42;99932.31;4277101;33;20001;-88
2022/02/25 06:46:02;;;;;;;;;;;;;;;4.27;59.42;99920.31;4276148;33;20274;-88
2022/02/25 06:48:27;;;;;;;;;;;;;;;4.34;59.42;99936.59;4276310;33;20016;-88
2022/02/25 06:50:53;;;;;;;;;;;;;;;4.58;59.43;99951.09;4275923;33;20343;-89
2022/02/25 06:53:18;;;;;;;;;;;;;;;4.73;59.45;99963.03;4275953;33;20025;-87
2022/02/25 06:55:43;;;;;;;;;;;;;;;4.77;59.44;99969.91;4279514;33;20027;-88
2022/02/25 06:58:08;;;;;;;;;;;;;;;4.88;59.45;99981.88;4290353;33;20004;-88
2022/02/25 07:00:34;;;;;;;;;;;;;;;5.07;59.46;99982.62;4290499;33;20015;-89
2022/02/25 07:02:59;;;;;;;;;;;;;;;5.20;59.47;99993.72;4290604;33;19988;-88
2022/02/25 07:05:25;;;;;;;;;;;;;;;5.06;59.46;99999.00;4290776;33;19989;-88
2022/02/25 07:07:51;;;;;;;;;;;;;;;5.18;59.47;100001.47;4303790;33;19985;-88
2022/02/25 07:10:16;;;;;;;;;;;;;;;5.23;59.47;100004.06;4290409;33;20164;-88
2022/02/25 07:12:41;;;;;;;;;;;;;;;5.37;59.47;100015.12;4290038;33;19973;-88
2022/02/25 07:15:08;;;;;;;;;;;;;;;5.39;59.49;100022.84;4290122;33;20016;-87
2022/02/25 07:17:33;;;;;;;;;;;;;;;5.39;59.49;100043.50;4289081;33;20153;-86
2022/02/25 07:19:58;;;;;;;;;;;;;;;5.74;59.50;100040.69;4298550;33;20048;-87
2022/02/25 07:22:24;;;;;;;;;;;;;;;5.64;59.49;100039.03;4276324;33;25217;-89
2022/02/25 07:24:49;;;;;;;;;;;;;;;5.57;59.49;100042.53;4282519;33;19992;-88
2022/02/25 07:27:14;;;;;;;;;;;;;;;5.48;59.48;100041.75;4290254;33;20367;-87
2022/02/25 07:29:40;;;;;;;;;;;;;;;5.66;59.49;100035.56;4276348;33;20048;-87
2022/02/25 07:32:05;;;;;;;;;;;;;;;5.80;59.50;100048.38;4289679;33;20290;-88
2022/02/25 07:34:30;;;;;;;;;;;;;;;5.83;59.50;100038.03;4275880;33;20241;-87
2022/02/25 07:36:55;;;;;;;;;;;;;;;6.02;59.52;100043.94;4289434;33;19996;-88
2022/02/25 07:39:21;;;;;;;;;;;;;;;6.12;59.52;100036.06;4275982;33;19996;-88
2022/02/25 07:41:47;;;;;;;;;;;;;;;6.23;59.53;100035.97;4276440;33;19985;-88
2022/02/25 07:44:12;;;;;;;;;;;;;;;6.51;59.55;100031.38;4276719;33;19977;-88
2022/02/25 07:46:37;;;;;;;;;;;;;;;6.53;59.55;100044.28;4277099;33;20020;-91
2022/02/25 07:49:02;;;;;;;;;;;;;;;6.58;59.55;100029.56;4277578;33;19996;-87
2022/02/25 07:51:28;;;;;;;;;;;;;;;6.62;59.54;100026.94;4288813;33;28275;-90
2022/02/25 07:53:54;;;;;;;;;;;;;;;6.92;59.57;100023.13;4264652;33;19989;-89
2022/02/25 07:56:19;;;;;;;;;;;;;;;7.04;59.57;100012.59;4301813;33;20399;-90
2022/02/25 07:58:45;;;;;;;;;;;;;;;7.15;59.58;100009.03;4294026;33;20012;-90
2022/02/25 08:01:10;;;;;;;;;;;;;;;7.28;59.59;100018.31;4306733;33;19996;-91
2022/02/25 08:03:42;;;;;;;;;;;;;;;7.48;59.60;100018.88;4306393;33;20241;-93
2022/02/25 08:06:07;;;;;;;;;;;;;;;7.42;59.59;100019.00;4294447;33;19995;-90
2022/02/25 08:08:32;;;;;;;;;;;;;;;7.63;59.62;100025.56;4305834;33;20384;-91
2022/02/25 08:10:58;;;;;;;;;;;;;;;7.68;59.61;100016.84;4305285;33;20017;-90
2022/02/25 08:13:23;;;;;;;;;;;;;;;7.48;59.60;100012.84;4306009;33;20000;-88
2022/02/25 08:15:48;;;;;;;;;;;;;;;7.60;59.60;100026.50;4298031;33;20040;-89
2022/02/25 08:18:14;;;;;;;;;;;;;;;7.32;59.60;100027.75;4276252;33;20019;-86
2022/02/25 08:20:39;;;;;;;;;;;;;;;7.51;59.60;100025.75;4303604;33;19980;-87
2022/02/25 08:23:04;;;;;;;;;;;;;;;7.70;59.62;100022.00;4290325;33;20032;-86
2022/02/25 08:25:30;;;;;;;;;;;;;;;7.66;59.60;100013.44;4290194;33;20023;-86
2022/02/25 08:27:55;;;;;;;;;;;;;;;7.50;59.60;100022.31;4290283;33;20028;-86
2022/02/25 08:30:20;;;;;;;;;;;;;;;7.67;59.61;100025.50;4289748;33;19988;-86
2022/02/25 08:32:46;;;;;;;;;;;;;;;7.90;59.62;100024.28;4290032;33;19981;-86
2022/02/25 08:35:12;;;;;;;;;;;;;;;7.99;59.63;100024.09;4290191;33;20259;-90
2022/02/25 08:37:37;;;;;;;;;;;;;;;7.86;59.62;100027.81;4291448;33;20000;-88
2022/02/25 08:40:03;;;;;;;;;;;;;;;7.96;59.63;100031.94;4303633;33;20069;-88
2022/02/25 08:42:29;;;;;;;;;;;;;;;7.91;59.62;100031.16;4290080;33;19981;-86
2022/02/25 08:44:54;;;;;;;;;;;;;;;8.01;59.63;100028.38;4303244;33;20334;-86
2022/02/25 08:47:19;;;;;;;;;;;;;;;7.98;59.62;100037.94;4291574;33;19996;-89
2022/02/25 08:49:45;;;;;;;;;;;;;;;8.02;59.63;100040.47;4291432;33;20451;-91
2022/02/25 08:52:10;;;;;;;;;;;;;;;8.00;59.63;100033.59;4291887;33;19993;-93
2022/02/25 08:54:36;;;;;;;;;;;;;;;8.07;59.63;100039.56;4293128;33;20004;-92
2022/02/25 08:57:02;;;;;;;;;;;;;;;8.46;59.66;100038.84;4290682;33;20015;-86
2022/02/25 08:59:27;;;;;;;;;;;;;;;8.65;59.66;100033.31;4290016;33;20764;-83
2022/02/25 09:01:55;;;;;;;;;;;;;;;8.56;59.66;100031.75;4289897;33;20266;-88
2022/02/25 09:04:20;;;;;;;;;;;;;;;8.56;59.65;100042.12;4290229;33;20299;-88
2022/02/25 09:06:45;;;;;;;;;;;;;;;8.81;59.67;100042.50;4289856;33;19988;-89
2022/02/25 09:09:11;;;;;;;;;;;;;;;9.09;59.68;100045.38;4289737;33;20113;-89
2022/02/25 09:11:36;;;;;;;;;;;;;;;9.43;59.71;100046.34;4297810;33;20049;-87
2022/02/25 09:14:01;;;;;;;;;;;;;;;9.61;59.72;100050.28;4275324;33;20019;-89
2022/02/25 09:16:27;;;;;;;;;;;;;;;9.74;59.73;100049.12;4275546;33;20015;-88
2022/02/25 09:18:52;;;;;;;;;;;;;;;9.80;59.73;100048.97;4288773;33;20019;-88
2022/02/25 09:21:17;;;;;;;;;;;;;;;9.74;59.73;100067.31;4288694;33;20321;-84
2022/02/25 09:23:43;;;;;;;;;;;;;;;9.72;59.73;100061.28;4288604;33;19993;-83
2022/02/25 09:26:08;;;;;;;;;;;;;;;9.77;59.73;100071.56;4288414;33;20012;-87
2022/02/25 09:28:34;;;;;;;;;;;;;;;9.84;59.73;100074.00;4275153;33;20056;-87
2022/02/25 09:30:59;;;;;;;;;;;;;;;10.10;59.75;100073.34;4275392;33;20033;-87
2022/02/25 09:33:24;;;;;;;;;;;;;;;10.40;59.76;100083.91;4275330;33;20049;-85
2022/02/25 09:35:50;;;;;;;;;;;;;;;10.23;59.75;100104.31;4275478;33;20346;-88
2022/02/25 09:38:15;;;;;;;;;;;;;;;9.88;59.74;100073.91;4276325;33;19980;-91
2022/02/25 09:40:41;;;;;;;;;;;;;;;9.80;59.73;100080.16;4276449;33;20326;-90
2022/02/25 09:43:06;;;;;;;;;;;;;;;9.92;59.73;100080.75;4276916;33;19997;-93
2022/02/25 09:45:32;;;;;;;;;;;;;;;9.83;59.73;100089.62;4275687;33;20119;-90
2022/02/25 09:47:57;;;;;;;;;;;;;;;9.78;59.72;100081.94;4277075;33;19977;-90
2022/02/25 09:50:26;;;;;;;;;;;;;;;9.64;59.72;100097.00;4276699;33;20338;-90
2022/02/25 09:52:51;;;;;;;;;;;;;;;9.43;59.71;100090.53;4280219;33;19984;-91
2022/02/25 09:55:30;;;;;;;;;;;;;;;9.38;59.71;100094.97;4281742;33;20015;-96
2022/02/25 09:57:56;;;;;;;;;;;;;;;9.52;59.71;100084.28;4279879;33;19976;-92
2022/02/25 10:00:22;;;;;;;;;;;;;;;9.78;59.72;100109.69;4281553;33;19993;-86
2022/02/25 10:02:48;;;;;;;;;;;;;;;9.67;59.72;100088.25;4274706;33;20370;-86
2022/02/25 10:05:14;;;;;;;;;;;;;;;9.78;59.72;100086.28;4276160;33;19993;-94
2022/02/25 10:07:42;;;;;;;;;;;;;;;9.75;59.73;100075.97;4278036;33;20030;-95
2022/02/25 10:10:07;;;;;;;;;;;;;;;9.62;59.72;100077.13;4277493;33;20364;-90
2022/02/25 10:12:37;;;;;;;;;;;;;;;9.74;59.73;100089.84;4277511;33;19993;-94
2022/02/25 10:15:02;;;;;;;;;;;;;;;9.79;59.73;100086.25;4287607;33;19992;-91
2022/02/25 10:17:28;;;;;;;;;;;;;;;9.91;59.73;100077.28;4294767;33;19991;-90
2022/02/25 10:19:53;;;;;;;;;;;;;;;10.04;59.74;100083.91;4325982;33;20419;-88
2022/02/25 10:22:23;;;;;;;;;;;;;;;10.02;59.74;100085.69;4303697;33;20301;-88
2022/02/25 10:24:50;;;;;;;;;;;;;;;10.41;59.76;100094.28;4303884;33;20413;-89
2022/02/25 10:27:19;;;;;;;;;;;;;;;10.50;59.77;100084.53;4327652;33;20506;-85
2022/02/25 10:29:58;;;;;;;;;;;;;;;10.59;59.77;100089.47;4314816;33;19999;-88
2022/02/25 10:32:27;;;;;;;;;;;;;;;10.71;59.78;100095.22;4289255;33;20032;-93
2022/02/25 10:34:52;;;;;;;;;;;;;;;10.94;59.79;100101.56;4301810;33;20090;-88
2022/02/25 10:37:18;;;;;;;;;;;;;;;11.20;59.81;100085.19;4289348;33;20115;-88
2022/02/25 10:39:43;;;;;;;;;;;;;;;11.31;59.81;100090.91;4288986;33;20334;-91
2022/02/25 10:42:11;;;;;;;;;;;;;;;11.00;59.80;100089.22;4288245;33;27766;-86
2022/02/25 10:44:43;;;;;;;;;;;;;;;10.81;59.78;100105.37;4289176;33;19988;-89
2022/02/25 10:47:22;;;;;;;;;;;;;;;10.64;59.78;100090.22;4289445;33;19980;-87
2022/02/25 10:49:59;;;;;;;;;;;;;;;10.59;59.77;100092.94;4290517;33;19971;-90
2022/02/25 10:52:26;;;;;;;;;;;;;;;10.75;59.78;100093.38;4290231;33;20044;-89
2022/02/25 10:54:52;;;;;;;;;;;;;;;11.03;59.80;100089.13;4291289;33;20072;-89
2022/02/25 10:57:19;;;;;;;;;;;;;;;10.84;59.79;100113.09;4291188;33;19977;-88
2022/02/25 10:59:45;;;;;;;;;;;;;;;10.75;59.78;100115.06;4291419;33;19971;-89
2022/02/25 11:02:30;;;;;;;;;;;;;;;10.88;59.79;100096.50;4291474;33;20016;-88
2022/02/25 11:05:02;;;;;;;;;;;;;;;10.74;59.78;100096.88;4292414;33;20651;-90
2022/02/25 11:07:27;;;;;;;;;;;;;;;10.67;59.77;100085.81;4291345;33;20048;-90
2022/02/25 11:09:53;;;;;;;;;;;;;;;10.74;59.78;100083.88;4291440;33;20033;-89
2022/02/25 11:12:18;;;;;;;;;;;;;;;10.74;59.78;100087.34;4291263;33;20038;-86
2022/02/25 11:14:43;;;;;;;;;;;;;;;10.63;59.78;100097.16;4304207;33;19980;-89
2022/02/25 11:17:09;;;;;;;;;;;;;;;10.75;59.78;100065.59;4290632;33;20036;-88
2022/02/25 11:19:34;;;;;;;;;;;;;;;10.84;59.79;100069.69;4291107;33;19989;-90
2022/02/25 11:21:59;;;;;;;;;;;;;;;10.89;59.79;100070.44;4291968;33;20008;-87
2022/02/25 11:24:25;;;;;;;;;;;;;;;11.15;59.81;100063.63;4304084;33;20035;-85
2022/02/25 11:26:50;;;;;;;;;;;;;;;11.34;59.82;100073.44;4303493;33;20311;-86
2022/02/25 11:29:15;;;;;;;;;;;;;;;11.56;59.83;100060.59;4290357;33;20536;-84
2022/02/25 11:31:40;;;;;;;;;;;;;;;11.81;59.84;100052.88;4290321;33;20036;-86
2022/02/25 11:34:06;;;;;;;;;;;;;;;12.04;59.85;100065.19;4302137;33;20020;-85
2022/02/25 11:36:39;;;;;;;;;;;;;;;11.66;59.83;100075.06;4290181;33;19984;-85
2022/02/25 11:39:16;;;;;;;;;;;;;;;11.52;59.83;100066.81;4303439;33;20534;-87
2022/02/25 11:41:47;;;;;;;;;;;;;;;11.18;59.80;100074.81;4290279;33;20011;-84
2022/02/25 11:44:12;;;;;;;;;;;;;;;10.80;59.79;100069.81;4303640;33;19992;-86
2022/02/25 11:46:38;;;;;;;;;;;;;;;10.64;59.78;100070.22;4290442;33;19991;-85
2022/02/25 11:49:12;;;;;;;;;;;;;;;10.44;59.77;100096.81;4303557;33;20007;-83
2022/02/25 11:51:41;;;;;;;;;;;;;;;10.68;59.77;100077.09;4290476;33;20457;-90
2022/02/25 11:54:28;;;;;;;;;;;;;;;10.85;59.79;100078.34;4290472;33;20060;-87
2022/02/25 11:56:56;;;;;;;;;;;;;;;10.91;59.78;100073.84;4303649;33;19977;-83
2022/02/25 11:59:24;;;;;;;;;;;;;;;10.96;59.80;100071.97;4303757;33;19993;-90
2022/02/25 12:02:02;;;;;;;;;;;;;;;10.99;59.79;100086.66;4291095;33;20001;-87
2022/02/25 12:04:29;;;;;;;;;;;;;;;10.96;59.80;100076.31;4304711;33;20341;-89
2022/02/25 12:07:00;;;;;;;;;;;;;;;11.24;59.81;100082.44;4293702;33;19980;-90
2022/02/25 12:09:44;;;;;;;;;;;;;;;11.28;59.81;100085.81;4305123;33;20026;-88
2022/02/25 12:12:22;;;;;;;;;;;;;;;11.17;59.81;100083.53;4291718;33;20047;-91
2022/02/25 12:15:01;;;;;;;;;;;;;;;11.39;59.82;100073.31;4291207;33;19988;-89
2022/02/25 12:17:45;;;;;;;;;;;;;;;11.49;59.82;100076.50;4290605;33;20079;-87
2022/02/25 12:20:11;;;;;;;;;;;;;;;11.46;59.83;100079.19;4290047;33;19984;-87
2022/02/25 12:23:00;;;;;;;;;;;;;;;11.46;59.82;100069.62;4290272;33;20017;-88
2022/02/25 12:25:41;;;;;;;;;;;;;;;11.28;59.81;100080.59;4290396;33;19992;-84
2022/02/25 12:28:30;;;;;;;;;;;;;;;11.31;59.82;100065.72;4303338;33;19995;-87
2022/02/25 12:30:56;;;;;;;;;;;;;;;11.45;59.83;100069.66;4303900;33;19976;-88
2022/02/25 12:33:27;;;;;;;;;;;;;;;11.18;59.81;100087.84;4289801;33;20353;-87
2022/02/25 12:35:56;;;;;;;;;;;;;;;10.88;59.79;100083.47;4303399;33;20064;-87
2022/02/25 12:38:22;;;;;;;;;;;;;;;10.99;59.79;100090.09;4303574;33;20342;-91
2022/02/25 12:40:48;;;;;;;;;;;;;;;11.23;59.81;100091.16;4303880;33;20432;-88
2022/02/25 12:43:13;;;;;;;;;;;;;;;11.14;59.81;100088.81;4291845;33;20056;-89
2022/02/25 12:45:39;;;;;;;;;;;;;;;11.28;59.81;100077.97;4304797;33;19999;-87
2022/02/25 12:48:04;;;;;;;;;;;;;;;11.41;59.82;100078.47;4290608;33;19991;-90
2022/02/25 12:50:29;;;;;;;;;;;;;;;11.32;59.82;100082.19;4316737;33;19984;-92
2022/02/25 12:53:02;;;;;;;;;;;;;;;11.37;59.81;100077.72;4305294;33;20047;-86
2022/02/25 12:55:27;;;;;;;;;;;;;;;11.33;59.81;100078.69;4318646;33;20255;-90
2022/02/25 12:57:52;;;;;;;;;;;;;;;11.21;59.81;100082.53;4305705;33;25875;-88